Time;durP1;ratioP1;P1;durP2;ratioP2;P2;SDS_P1;SDS_P2;PMS_P1;PMS_P2;Temp;Humidity;BMP_temperature;BMP_pressure;BME280_temperature;BME280_humidity;BME280_pressure;Samples;Min_cycle;Max_cycle;Signal;HPM_P1;HPM_P2
2022/12/07 00:00:02;;;;;;;26.08;18.30;;;;;;;7.50;68.01;101045.53;675109;29;1057;-79
2022/12/07 00:00:25;;;;;;;25.15;18.30;;;;;;;7.52;68.08;101056.00;672254;29;1181;-79
2022/12/07 00:00:46;;;;;;;24.83;18.10;;;;;;;7.48;68.08;101043.69;673340;29;1287;-79
2022/12/07 00:01:28;;;;;;;25.23;18.40;;;;;;;7.49;68.07;101050.69;678239;29;1029;-79
2022/12/07 00:01:49;;;;;;;23.67;17.98;;;;;;;7.55;68.05;101050.94;682531;29;1268;-79
2022/12/07 00:02:09;;;;;;;23.55;18.02;;;;;;;7.45;68.20;101041.88;677656;29;1186;-78
2022/12/07 00:02:30;;;;;;;24.02;17.77;;;;;;;7.54;68.17;101051.78;674923;29;1072;-79
2022/12/07 00:02:51;;;;;;;25.27;18.02;;;;;;;7.53;68.41;101057.78;673035;29;927;-78
2022/12/07 00:03:12;;;;;;;24.15;17.08;;;;;;;7.51;68.20;101046.44;674962;29;1142;-78
2022/12/07 00:03:33;;;;;;;22.70;16.90;;;;;;;7.50;67.97;101055.06;674929;29;1092;-78
2022/12/07 00:04:00;;;;;;;23.35;17.30;;;;;;;7.54;67.90;101050.06;676048;29;855;-79
2022/12/07 00:04:20;;;;;;;23.60;18.23;;;;;;;7.54;67.83;101043.97;680139;29;1038;-79
2022/12/07 00:04:41;;;;;;;23.40;18.07;;;;;;;7.54;68.17;101059.56;678790;29;1131;-79
2022/12/07 00:05:02;;;;;;;23.40;18.00;;;;;;;7.56;68.31;101046.66;676197;29;988;-79
2022/12/07 00:05:22;;;;;;;22.75;17.50;;;;;;;7.56;68.08;101044.06;677769;29;804;-78
2022/12/07 00:05:43;;;;;;;24.87;18.20;;;;;;;7.45;67.95;101039.28;674836;29;1235;-78
2022/12/07 00:06:05;;;;;;;24.55;17.83;;;;;;;7.50;68.01;101044.69;674954;29;1196;-79
2022/12/07 00:06:25;;;;;;;24.65;18.33;;;;;;;7.60;68.03;101054.66;672469;29;1048;-79
2022/12/07 00:06:51;;;;;;;23.65;18.08;;;;;;;7.47;67.84;101041.91;670528;29;1272;-79
2022/12/07 00:07:12;;;;;;;25.20;18.35;;;;;;;7.56;68.03;101062.22;675048;29;983;-79
2022/12/07 00:07:32;;;;;;;24.53;18.20;;;;;;;7.50;68.13;101047.28;673401;29;1751;-79
2022/12/07 00:07:53;;;;;;;23.00;17.95;;;;;;;7.55;67.75;101050.94;669933;29;1461;-79
2022/12/07 00:08:13;;;;;;;23.37;17.77;;;;;;;7.54;68.20;101047.47;669794;29;1294;-79
2022/12/07 00:08:35;;;;;;;23.53;17.70;;;;;;;7.58;67.96;101051.09;672366;29;1103;-79
2022/12/07 00:08:55;;;;;;;24.73;17.70;;;;;;;7.49;68.18;101048.97;677705;29;1224;-79
2022/12/07 00:09:17;;;;;;;24.13;18.00;;;;;;;7.54;67.61;101060.47;677536;29;927;-79
2022/12/07 00:09:38;;;;;;;22.95;17.25;;;;;;;7.46;68.21;101054.03;674711;29;1252;-79
2022/12/07 00:09:59;;;;;;;21.95;17.20;;;;;;;7.46;67.93;101056.63;675107;29;1159;-79
2022/12/07 00:10:19;;;;;;;21.73;16.67;;;;;;;7.46;68.53;101040.16;674939;29;1144;-79
2022/12/07 00:10:40;;;;;;;23.30;16.85;;;;;;;7.45;68.40;101043.56;674681;29;1918;-78
2022/12/07 00:11:09;;;;;;;24.57;16.30;;;;;;;7.51;68.34;101051.66;675103;29;744;-79
2022/12/07 00:11:30;;;;;;;24.30;16.10;;;;;;;7.44;68.34;101041.78;674088;29;1022;-79
2022/12/07 00:11:51;;;;;;;23.10;16.43;;;;;;;7.49;68.20;101045.50;672417;29;1141;-78
2022/12/07 00:12:12;;;;;;;20.70;16.45;;;;;;;7.50;68.32;101052.47;674951;29;1428;-79
2022/12/07 00:12:32;;;;;;;22.07;16.40;;;;;;;7.54;68.17;101056.97;674919;29;1096;-79
2022/12/07 00:12:53;;;;;;;23.13;16.50;;;;;;;7.45;68.37;101066.94;675001;29;868;-79
2022/12/07 00:13:14;;;;;;;23.80;16.55;;;;;;;7.45;68.47;101046.16;672552;29;1007;-79
2022/12/07 00:13:35;;;;;;;23.20;16.40;;;;;;;7.44;68.31;101044.41;672363;29;1159;-78
2022/12/07 00:13:59;;;;;;;21.25;15.75;;;;;;;7.44;68.31;101036.59;672538;29;793;-79
2022/12/07 00:14:21;;;;;;;22.17;15.70;;;;;;;7.48;68.23;101054.09;677673;29;962;-79
2022/12/07 00:14:41;;;;;;;23.52;16.30;;;;;;;7.52;68.33;101051.72;677576;29;1097;-78
2022/12/07 00:15:02;;;;;;;22.80;16.10;;;;;;;7.49;68.16;101046.38;669772;29;1183;-79
2022/12/07 00:15:23;;;;;;;21.90;16.00;;;;;;;7.54;68.21;101049.16;675032;29;1937;-79
2022/12/07 00:15:44;;;;;;;20.73;15.93;;;;;;;7.48;68.48;101043.69;677568;29;999;-79
2022/12/07 00:16:11;;;;;;;21.17;16.05;;;;;;;7.44;68.18;101036.59;675096;29;1173;-79
2022/12/07 00:16:33;;;;;;;21.83;15.70;;;;;;;7.52;68.33;101050.81;674752;29;2002;-79
2022/12/07 00:16:53;;;;;;;22.10;15.90;;;;;;;7.49;68.10;101048.09;677402;29;1367;-79
2022/12/07 00:17:14;;;;;;;22.00;15.90;;;;;;;7.46;68.34;101047.94;680051;29;1045;-79
2022/12/07 00:17:35;;;;;;;21.27;16.23;;;;;;;7.49;68.04;101050.69;680163;29;1006;-79
2022/12/07 00:17:56;;;;;;;20.98;15.80;;;;;;;7.56;67.98;101051.84;680307;29;805;-79
2022/12/07 00:18:16;;;;;;;21.15;16.15;;;;;;;7.49;68.43;101046.38;680737;29;1119;-79
2022/12/07 00:18:37;;;;;;;20.80;15.90;;;;;;;7.46;68.23;101041.06;683117;28;1075;-78
2022/12/07 00:18:59;;;;;;;21.74;16.56;;;;;;;7.44;68.30;101042.69;685634;28;756;-79
2022/12/07 00:19:19;;;;;;;21.25;15.88;;;;;;;7.52;68.34;101050.81;680169;29;1349;-79
2022/12/07 00:19:40;;;;;;;21.33;15.63;;;;;;;7.45;68.24;101051.34;677488;29;1093;-79
2022/12/07 00:20:01;;;;;;;20.20;15.20;;;;;;;7.44;68.31;101036.59;676334;29;1275;-79
2022/12/07 00:20:21;;;;;;;19.83;15.73;;;;;;;7.46;67.85;101041.06;672390;29;1104;-79
2022/12/07 00:20:42;;;;;;;19.15;15.40;;;;;;;7.49;67.80;101040.31;672385;29;1107;-79
2022/12/07 00:21:05;;;;;;;19.10;15.40;;;;;;;7.46;67.92;101045.34;675304;29;1050;-78
2022/12/07 00:21:28;;;;;;;20.58;15.38;;;;;;;7.53;68.22;101052.59;672417;29;1291;-79
2022/12/07 00:21:49;;;;;;;21.38;15.80;;;;;;;7.48;68.48;101030.72;672343;29;856;-79
2022/12/07 00:22:10;;;;;;;20.23;15.60;;;;;;;7.42;67.98;101043.44;672413;29;1116;-79
2022/12/07 00:22:30;;;;;;;21.30;15.37;;;;;;;7.39;68.01;101045.06;672167;29;1434;-79
2022/12/07 00:22:51;;;;;;;22.27;15.07;;;;;;;7.42;68.28;101044.31;672392;29;1210;-78
2022/12/07 00:23:12;;;;;;;24.42;15.50;;;;;;;7.45;68.42;101048.75;670036;29;1471;-79
2022/12/07 00:23:33;;;;;;;22.75;15.50;;;;;;;7.40;68.27;101046.88;669817;29;984;-79
2022/12/07 00:23:55;;;;;;;22.60;16.00;;;;;;;7.31;68.31;101033.44;669885;29;853;-79
2022/12/07 00:24:16;;;;;;;20.63;15.40;;;;;;;7.31;68.59;101040.34;674852;29;1022;-78
2022/12/07 00:24:37;;;;;;;20.70;15.60;;;;;;;7.28;68.60;101030.72;674936;29;1085;-78
2022/12/07 00:24:57;;;;;;;19.40;15.50;;;;;;;7.36;68.52;101033.63;676373;29;780;-79
2022/12/07 00:25:18;;;;;;;20.23;15.57;;;;;;;7.39;68.35;101041.59;680261;29;1080;-79
2022/12/07 00:25:38;;;;;;;20.20;15.53;;;;;;;7.34;67.92;101033.59;680106;29;986;-78
2022/12/07 00:26:11;;;;;;;20.17;15.38;;;;;;;7.45;68.18;101046.16;680347;29;823;-79
2022/12/07 00:26:34;;;;;;;20.90;15.90;;;;;;;7.44;68.38;101047.00;679311;29;1984;-79
2022/12/07 00:26:55;;;;;;;26.85;16.88;;;;;;;7.36;68.57;101034.53;677611;29;955;-78
2022/12/07 00:27:27;;;;;;;28.60;16.90;;;;;;;7.42;68.24;101035.66;677226;29;1112;-78
2022/12/07 00:27:47;;;;;;;24.90;16.00;;;;;;;7.39;68.57;101034.66;674906;29;922;-78
2022/12/07 00:28:09;;;;;;;23.73;15.97;;;;;;;7.38;68.64;101026.84;674929;29;1160;-78
2022/12/07 00:28:29;;;;;;;23.33;16.20;;;;;;;7.49;67.95;101028.19;672352;29;1094;-79
2022/12/07 00:28:52;;;;;;;20.73;16.30;;;;;;;7.53;68.30;101034.41;674914;29;1406;-79
2022/12/07 00:29:17;;;;;;;22.23;17.05;;;;;;;7.51;68.14;101028.28;677537;29;863;-78
2022/12/07 00:29:38;;;;;;;23.85;17.40;;;;;;;7.61;67.70;101045.16;674777;29;1215;-78
2022/12/07 00:29:58;;;;;;;22.20;16.03;;;;;;;7.47;67.63;101027.25;675128;29;805;-78
2022/12/07 00:30:19;;;;;;;22.60;15.73;;;;;;;7.52;68.10;101037.84;674904;29;1119;-78
2022/12/07 00:30:40;;;;;;;21.60;15.68;;;;;;;7.46;67.71;101027.16;672308;29;1976;-79
2022/12/07 00:31:09;;;;;;;22.23;16.25;;;;;;;7.52;67.85;101036.13;669937;29;742;-79
2022/12/07 00:31:34;;;;;;;21.63;16.02;;;;;;;7.55;68.23;101040.56;671246;29;1132;-79
2022/12/07 00:31:55;;;;;;;21.77;16.48;;;;;;;7.57;67.87;101038.03;672448;29;1223;-79
2022/12/07 00:32:15;;;;;;;22.50;16.35;;;;;;;7.44;67.72;101031.41;672489;29;1071;-79
2022/12/07 00:32:36;;;;;;;20.25;16.23;;;;;;;7.52;68.07;101046.53;674940;29;1236;-78
2022/12/07 00:32:57;;;;;;;19.97;16.30;;;;;;;7.52;68.13;101033.53;677707;29;853;-78
2022/12/07 00:33:28;;;;;;;20.07;16.23;;;;;;;7.52;68.13;101046.53;677659;29;797;-78
2022/12/07 00:33:49;;;;;;;21.70;15.65;;;;;;;7.53;67.76;101042.19;677655;29;897;-78
2022/12/07 00:34:14;;;;;;;21.75;15.90;;;;;;;7.42;67.74;101035.66;679299;29;1017;-78
2022/12/07 00:34:34;;;;;;;21.85;16.17;;;;;;;7.50;68.10;101040.34;677899;29;1153;-79
2022/12/07 00:34:55;;;;;;;21.58;15.98;;;;;;;7.58;68.16;101045.91;680302;29;753;-78
2022/12/07 00:35:21;;;;;;;21.42;15.82;;;;;;;7.50;67.45;101034.28;679889;29;1089;-78
2022/12/07 00:35:42;;;;;;;21.48;15.98;;;;;;;7.60;67.80;101046.84;674882;29;1157;-78
2022/12/07 00:36:06;;;;;;;22.13;15.57;;;;;;;7.55;67.87;101032.75;676540;29;1152;-78
2022/12/07 00:36:27;;;;;;;22.38;15.85;;;;;;;7.60;67.62;101039.06;677551;29;1306;-79
2022/12/07 00:36:49;;;;;;;25.20;16.63;;;;;;;7.50;67.78;101042.06;674681;29;1159;-78
2022/12/07 00:37:10;;;;;;;26.25;17.23;;;;;;;7.56;68.05;101042.34;676723;29;1006;-79
2022/12/07 00:37:30;;;;;;;25.50;16.85;;;;;;;7.61;67.50;101047.75;678487;29;998;-79
2022/12/07 00:37:51;;;;;;;22.15;16.20;;;;;;;7.56;67.71;101037.16;672419;29;837;-79
2022/12/07 00:38:12;;;;;;;20.10;15.63;;;;;;;7.58;67.74;101039.81;672398;29;976;-79
2022/12/07 00:38:34;;;;;;;20.67;16.48;;;;;;;7.53;67.84;101043.09;672195;29;1074;-79
2022/12/07 00:38:56;;;;;;;20.55;16.60;;;;;;;7.53;67.42;101037.00;674955;29;934;-78
2022/12/07 00:39:17;;;;;;;21.45;16.35;;;;;;;7.52;67.68;101043.94;674854;29;1022;-79
2022/12/07 00:39:38;;;;;;;22.65;16.70;;;;;;;7.51;67.63;101047.31;674102;29;1160;-78
2022/12/07 00:39:59;;;;;;;21.83;16.75;;;;;;;7.54;67.75;101049.16;674686;29;1184;-78
2022/12/07 00:40:19;;;;;;;20.67;16.60;;;;;;;7.51;67.94;101030.88;674200;29;1020;-79
2022/12/07 00:40:40;;;;;;;20.52;16.08;;;;;;;7.53;68.07;101037.00;669552;29;1232;-79
2022/12/07 00:41:04;;;;;;;20.48;15.88;;;;;;;7.50;67.90;101034.28;672932;29;840;-78
2022/12/07 00:41:26;;;;;;;21.10;16.23;;;;;;;7.51;67.69;101036.94;676421;29;1139;-79
2022/12/07 00:41:47;;;;;;;21.10;15.90;;;;;;;7.54;67.79;101049.16;679127;29;903;-79
2022/12/07 00:42:08;;;;;;;21.57;15.70;;;;;;;7.53;67.53;101032.72;681864;29;1050;-79
2022/12/07 00:42:28;;;;;;;20.60;15.75;;;;;;;7.61;67.34;101042.56;682002;29;1129;-79
2022/12/07 00:42:49;;;;;;;21.30;16.58;;;;;;;7.58;67.76;101040.72;680943;29;981;-79
2022/12/07 00:43:09;;;;;;;19.50;16.07;;;;;;;7.63;67.52;101034.00;678371;29;1255;-79
2022/12/07 00:43:30;;;;;;;21.10;16.42;;;;;;;7.63;67.38;101027.94;675675;29;1019;-79
2022/12/07 00:43:52;;;;;;;21.35;15.80;;;;;;;7.63;67.34;101027.94;675700;29;1306;-79
2022/12/07 00:44:13;;;;;;;22.88;16.67;;;;;;;7.58;67.20;101032.91;675022;29;1203;-79
2022/12/07 00:44:33;;;;;;;22.10;16.67;;;;;;;7.50;66.99;101026.50;680934;29;1424;-79
2022/12/07 00:44:54;;;;;;;21.77;16.98;;;;;;;7.67;67.42;101041.13;686311;28;827;-78
2022/12/07 00:45:14;;;;;;;21.73;16.48;;;;;;;7.65;67.47;101021.97;683674;29;1140;-79
2022/12/07 00:45:35;;;;;;;21.43;16.00;;;;;;;7.61;67.23;101040.84;678306;29;1026;-78
2022/12/07 00:45:56;;;;;;;21.35;15.93;;;;;;;7.49;67.73;101027.31;681013;29;793;-79
2022/12/07 00:46:18;;;;;;;21.02;15.80;;;;;;;7.51;67.74;101028.28;681021;29;1128;-79
2022/12/07 00:46:38;;;;;;;22.02;15.60;;;;;;;7.51;67.84;101030.88;675479;29;987;-78
2022/12/07 00:46:59;;;;;;;22.20;15.73;;;;;;;7.60;67.41;101031.28;676097;29;812;-78
2022/12/07 00:47:20;;;;;;;23.47;15.87;;;;;;;7.53;67.71;101031.81;678335;29;1013;-79
2022/12/07 00:47:40;;;;;;;22.55;16.33;;;;;;;7.57;67.48;101036.34;678535;29;1180;-78
2022/12/07 00:48:01;;;;;;;22.40;16.15;;;;;;;7.57;67.79;101032.84;678292;29;1188;-79
2022/12/07 00:48:22;;;;;;;21.03;16.57;;;;;;;7.62;67.51;101031.34;677703;29;1158;-79
2022/12/07 00:48:42;;;;;;;21.88;16.40;;;;;;;7.65;67.56;101028.88;675429;29;1087;-78
2022/12/07 00:49:03;;;;;;;21.67;16.30;;;;;;;7.61;67.17;101026.97;675075;29;1165;-78
2022/12/07 00:49:24;;;;;;;22.13;16.10;;;;;;;7.53;67.15;101026.63;680765;29;1090;-78
2022/12/07 00:49:45;;;;;;;21.67;16.27;;;;;;;7.65;67.72;101037.56;682569;28;1303;-79
2022/12/07 00:50:06;;;;;;;20.90;16.08;;;;;;;7.61;67.40;101024.38;680785;29;1178;-78
2022/12/07 00:50:27;;;;;;;20.40;16.27;;;;;;;7.63;67.72;101022.72;675487;29;1920;-79
2022/12/07 00:50:48;;;;;;;19.35;15.75;;;;;;;7.54;67.71;101024.09;675572;29;1305;-78
2022/12/07 00:51:11;;;;;;;21.15;16.00;;;;;;;7.50;67.29;101022.19;675510;29;942;-79
2022/12/07 00:51:32;;;;;;;24.67;16.67;;;;;;;7.53;67.57;101026.63;675427;29;1746;-79
2022/12/07 00:51:52;;;;;;;24.67;16.80;;;;;;;7.45;67.42;101015.91;675586;29;879;-79
2022/12/07 00:52:13;;;;;;;22.88;16.40;;;;;;;7.47;67.29;101031.53;677036;29;1030;-78
2022/12/07 00:52:33;;;;;;;20.87;15.47;;;;;;;7.54;67.75;101023.19;675707;29;1117;-79
2022/12/07 00:52:54;;;;;;;20.83;15.73;;;;;;;7.56;67.70;101026.78;675452;29;1298;-78
2022/12/07 00:53:15;;;;;;;20.55;15.60;;;;;;;7.63;67.59;101038.31;677919;29;1175;-79
2022/12/07 00:53:38;;;;;;;20.20;15.85;;;;;;;7.60;67.60;101028.69;678323;29;1333;-79
2022/12/07 00:53:59;;;;;;;19.67;15.68;;;;;;;7.53;67.38;101018.81;680763;29;796;-79
2022/12/07 00:54:19;;;;;;;19.00;15.60;;;;;;;7.52;67.85;101023.16;678093;29;1006;-79
2022/12/07 00:54:40;;;;;;;20.80;15.60;;;;;;;7.58;67.45;101017.34;675400;29;1210;-78
2022/12/07 00:55:00;;;;;;;21.65;15.90;;;;;;;7.67;67.14;101030.72;675566;29;1065;-79
2022/12/07 00:55:21;;;;;;;21.88;16.20;;;;;;;7.60;67.61;101023.47;675980;29;1184;-79
2022/12/07 00:55:42;;;;;;;19.83;16.00;;;;;;;7.68;67.14;101032.50;678138;29;1101;-78
2022/12/07 00:56:06;;;;;;;19.90;16.30;;;;;;;7.63;67.40;101028.78;678520;29;1037;-78
2022/12/07 00:56:28;;;;;;;20.35;15.95;;;;;;;7.61;67.45;101027.84;678035;29;1071;-78
2022/12/07 00:56:49;;;;;;;19.95;15.77;;;;;;;7.57;67.34;101022.44;676216;29;976;-79
2022/12/07 00:57:09;;;;;;;20.07;15.53;;;;;;;7.60;67.13;101012.19;675551;29;1106;-78
2022/12/07 00:57:31;;;;;;;20.05;15.82;;;;;;;7.58;67.26;101019.94;675452;29;1153;-79
2022/12/07 00:57:51;;;;;;;19.63;15.35;;;;;;;7.58;67.64;101021.63;678256;29;887;-79
2022/12/07 00:58:12;;;;;;;19.60;15.18;;;;;;;7.59;67.10;101019.13;678010;29;1052;-79
2022/12/07 00:58:33;;;;;;;19.42;15.27;;;;;;;7.57;67.17;101018.16;677620;29;1078;-79
2022/12/07 00:58:59;;;;;;;20.15;15.80;;;;;;;7.61;67.50;101025.25;678552;29;891;-79
2022/12/07 00:59:20;;;;;;;20.67;16.13;;;;;;;7.66;67.53;101026.34;680707;29;1002;-79
2022/12/07 00:59:40;;;;;;;21.83;16.13;;;;;;;7.63;66.88;101022.72;679035;29;1102;-78
2022/12/07 01:00:01;;;;;;;21.63;15.83;;;;;;;7.66;67.37;101018.56;681848;29;733;-79
2022/12/07 01:00:21;;;;;;;23.40;15.90;;;;;;;7.73;66.80;101029.22;683383;29;820;-79
2022/12/07 01:00:43;;;;;;;22.67;15.50;;;;;;;7.63;66.88;101023.59;683246;29;1199;-79
2022/12/07 01:01:05;;;;;;;21.80;15.25;;;;;;;7.70;66.86;101034.28;680555;29;1850;-79
2022/12/07 01:01:30;;;;;;;20.88;15.70;;;;;;;7.68;66.94;101031.63;678710;29;1105;-79
2022/12/07 01:01:50;;;;;;;21.40;16.63;;;;;;;7.63;67.01;101021.00;677980;29;2050;-79
2022/12/07 01:02:11;;;;;;;22.25;16.75;;;;;;;7.60;67.24;101022.56;672830;29;1315;-78
2022/12/07 01:02:31;;;;;;;21.52;16.30;;;;;;;7.64;67.42;101025.41;670251;29;1047;-79
2022/12/07 01:02:52;;;;;;;21.27;15.83;;;;;;;7.64;66.83;101020.22;670396;29;793;-79
2022/12/07 01:03:14;;;;;;;21.75;16.10;;;;;;;7.69;66.78;101025.59;670315;29;1414;-79
2022/12/07 01:03:36;;;;;;;23.20;16.20;;;;;;;7.63;67.17;101018.41;670209;29;1188;-78
2022/12/07 01:03:57;;;;;;;22.20;15.73;;;;;;;7.62;66.96;101021.81;672883;29;859;-78
2022/12/07 01:04:17;;;;;;;21.33;15.50;;;;;;;7.62;67.06;101013.16;672910;29;989;-79
2022/12/07 01:04:38;;;;;;;20.47;15.57;;;;;;;7.60;67.05;101012.19;677852;29;1109;-79
2022/12/07 01:04:58;;;;;;;21.00;15.80;;;;;;;7.56;67.17;101006.00;683303;29;1208;-78
2022/12/07 01:05:19;;;;;;;22.50;16.17;;;;;;;7.68;66.94;101029.91;683297;29;1017;-79
2022/12/07 01:05:40;;;;;;;21.52;15.85;;;;;;;7.60;67.20;101010.50;677986;29;1173;-79
2022/12/07 01:06:01;;;;;;;21.17;15.90;;;;;;;7.59;67.22;101013.00;678089;29;860;-79
2022/12/07 01:06:23;;;;;;;21.60;15.68;;;;;;;7.59;67.16;101016.50;678115;29;1009;-79
2022/12/07 01:06:43;;;;;;;21.80;16.00;;;;;;;7.57;67.14;101010.38;678395;29;1023;-79
2022/12/07 01:07:04;;;;;;;21.97;16.33;;;;;;;7.64;67.05;101019.31;678008;29;1061;-79
2022/12/07 01:07:24;;;;;;;20.75;16.23;;;;;;;7.61;67.22;101014.00;675842;29;1227;-79
2022/12/07 01:07:46;;;;;;;20.93;16.27;;;;;;;7.63;66.63;101014.94;675801;29;1218;-79
2022/12/07 01:08:07;;;;;;;20.15;15.80;;;;;;;7.60;66.71;101013.09;678063;29;969;-79
2022/12/07 01:08:28;;;;;;;19.88;15.80;;;;;;;7.61;67.25;101016.59;675325;29;1159;-78
2022/12/07 01:08:49;;;;;;;21.13;16.17;;;;;;;7.48;67.00;101007.34;673357;29;831;-78
2022/12/07 01:09:09;;;;;;;22.08;16.10;;;;;;;7.55;66.95;101009.38;675929;29;1222;-78
2022/12/07 01:09:30;;;;;;;23.13;16.75;;;;;;;7.53;66.96;101005.84;675773;29;1372;-79
2022/12/07 01:09:50;;;;;;;21.97;16.40;;;;;;;7.47;66.98;101005.56;678143;29;857;-79
2022/12/07 01:10:11;;;;;;;21.50;16.60;;;;;;;7.52;67.34;101010.16;678038;29;1063;-79
2022/12/07 01:10:32;;;;;;;20.67;16.20;;;;;;;7.48;66.91;101007.34;675357;29;1966;-78
2022/12/07 01:11:07;;;;;;;21.02;16.40;;;;;;;7.51;67.01;101010.97;675453;29;840;-79
2022/12/07 01:11:29;;;;;;;22.90;16.30;;;;;;;7.58;67.35;101021.63;675360;29;1263;-79
2022/12/07 01:11:50;;;;;;;23.15;16.40;;;;;;;7.52;67.15;101015.38;675393;29;1123;-79
2022/12/07 01:12:11;;;;;;;21.08;16.20;;;;;;;7.41;67.13;101003.59;675419;29;1057;-79
2022/12/07 01:12:31;;;;;;;21.15;16.17;;;;;;;7.44;67.29;101013.22;673137;29;1310;-79
2022/12/07 01:12:52;;;;;;;21.50;16.47;;;;;;;7.39;67.08;101007.84;675598;29;1394;-78
2022/12/07 01:13:12;;;;;;;21.98;16.65;;;;;;;7.40;67.59;101018.31;675481;29;963;-79
2022/12/07 01:13:36;;;;;;;22.58;16.92;;;;;;;7.40;67.56;101023.50;677800;29;1285;-79
2022/12/07 01:13:58;;;;;;;23.15;16.63;;;;;;;7.39;67.69;101026.00;678048;29;851;-78
2022/12/07 01:14:19;;;;;;;21.58;16.30;;;;;;;7.40;67.45;101010.50;677928;29;1357;-79
2022/12/07 01:14:41;;;;;;;21.00;15.97;;;;;;;7.47;67.27;101015.94;677319;29;1099;-79
2022/12/07 01:15:02;;;;;;;20.08;15.93;;;;;;;7.44;67.12;101002.84;677968;29;1163;-79
2022/12/07 01:15:23;;;;;;;20.45;15.90;;;;;;;7.40;67.38;101007.91;675473;29;1410;-78
2022/12/07 01:15:44;;;;;;;20.97;16.00;;;;;;;7.36;67.35;101007.69;676117;29;1133;-78
2022/12/07 01:16:06;;;;;;;22.48;16.63;;;;;;;7.49;67.40;101020.41;681188;29;1399;-78
2022/12/07 01:16:29;;;;;;;23.00;17.00;;;;;;;7.46;66.99;101012.50;680615;29;992;-79
2022/12/07 01:16:50;;;;;;;23.10;17.20;;;;;;;7.50;66.74;101016.97;681338;29;1360;-79
2022/12/07 01:17:10;;;;;;;22.60;17.20;;;;;;;7.43;67.21;101003.66;677998;29;1309;-79
2022/12/07 01:17:31;;;;;;;22.40;16.80;;;;;;;7.56;66.68;101024.19;678160;29;1155;-78
2022/12/07 01:17:52;;;;;;;22.50;16.70;;;;;;;7.51;67.24;101015.28;679911;29;1158;-79
2022/12/07 01:18:12;;;;;;;22.27;16.50;;;;;;;7.52;66.76;101017.06;680667;29;1012;-79
2022/12/07 01:18:35;;;;;;;24.30;17.10;;;;;;;7.54;66.65;101018.91;680489;29;1233;-79
2022/12/07 01:18:57;;;;;;;24.75;16.95;;;;;;;7.60;66.94;101027.78;675514;29;1252;-79
2022/12/07 01:19:17;;;;;;;24.05;16.52;;;;;;;7.54;67.03;101012.81;675415;29;994;-79
2022/12/07 01:19:38;;;;;;;24.00;16.63;;;;;;;7.48;67.13;101012.53;677984;29;1188;-78
2022/12/07 01:19:59;;;;;;;24.52;16.92;;;;;;;7.46;66.95;101019.38;677964;29;1157;-79
2022/12/07 01:20:19;;;;;;;22.93;16.80;;;;;;;7.45;66.60;101017.59;677363;29;1006;-79
2022/12/07 01:20:40;;;;;;;22.70;16.40;;;;;;;7.44;66.65;101013.22;675208;29;1206;-79
2022/12/07 01:21:07;;;;;;;23.38;16.00;;;;;;;7.47;66.57;101006.47;678131;29;792;-79
2022/12/07 01:21:35;;;;;;;24.90;16.25;;;;;;;7.56;66.84;101021.59;677996;29;1143;-79
2022/12/07 01:21:56;;;;;;;24.77;16.90;;;;;;;7.56;66.98;101018.09;680075;29;785;-79
2022/12/07 01:22:17;;;;;;;23.23;16.90;;;;;;;7.54;67.05;101029.31;680406;29;1391;-79
2022/12/07 01:22:38;;;;;;;22.50;17.00;;;;;;;7.53;66.49;101030.13;680406;29;1520;-79
2022/12/07 01:22:59;;;;;;;22.73;16.80;;;;;;;7.51;67.27;101023.94;678521;29;890;-78
2022/12/07 01:23:19;;;;;;;22.88;16.70;;;;;;;7.39;67.08;101024.28;680562;29;1289;-79
2022/12/07 01:23:40;;;;;;;22.63;16.27;;;;;;;7.39;67.36;101019.09;680557;29;1086;-78
2022/12/07 01:24:01;;;;;;;22.67;16.42;;;;;;;7.43;67.40;101019.25;678096;29;881;-79
2022/12/07 01:24:21;;;;;;;22.97;16.70;;;;;;;7.40;67.82;101020.91;678009;29;1234;-79
2022/12/07 01:24:42;;;;;;;23.33;16.97;;;;;;;7.44;67.48;101013.22;675141;29;1254;-79
2022/12/07 01:25:03;;;;;;;22.63;16.83;;;;;;;7.48;67.30;101015.13;674675;29;1308;-79
2022/12/07 01:25:24;;;;;;;23.80;17.08;;;;;;;7.44;67.52;101021.03;675437;29;1033;-78
2022/12/07 01:25:45;;;;;;;26.02;17.23;;;;;;;7.45;67.27;101017.59;680488;29;1171;-79
2022/12/07 01:26:10;;;;;;;25.77;17.55;;;;;;;7.45;67.08;101020.19;683164;29;1262;-79
2022/12/07 01:26:31;;;;;;;22.90;17.20;;;;;;;7.46;67.21;101019.38;675509;29;855;-79
2022/12/07 01:26:52;;;;;;;21.83;16.97;;;;;;;7.51;67.18;101017.88;675201;29;1293;-78
2022/12/07 01:27:13;;;;;;;21.50;16.52;;;;;;;7.50;67.29;101016.09;677983;29;953;-79
2022/12/07 01:27:34;;;;;;;21.42;16.45;;;;;;;7.60;67.02;101027.78;677893;29;1144;-79
2022/12/07 01:27:56;;;;;;;21.52;16.60;;;;;;;7.55;67.04;101017.19;678017;29;836;-79
2022/12/07 01:28:16;;;;;;;22.88;17.20;;;;;;;7.57;67.18;101014.66;680616;29;1234;-79
2022/12/07 01:28:37;;;;;;;22.48;16.85;;;;;;;7.58;66.64;101016.44;677868;29;1063;-79
2022/12/07 01:29:00;;;;;;;23.00;16.90;;;;;;;7.57;66.60;101018.16;676023;29;1084;-79
2022/12/07 01:29:21;;;;;;;21.75;16.50;;;;;;;7.59;66.85;101021.72;677920;29;1952;-79
2022/12/07 01:29:41;;;;;;;20.38;16.50;;;;;;;7.60;66.86;101018.28;677884;29;1112;-79
2022/12/07 01:30:06;;;;;;;19.93;16.10;;;;;;;7.59;66.47;101021.72;675458;29;813;-79
2022/12/07 01:30:26;;;;;;;20.92;15.93;;;;;;;7.61;66.76;101019.19;677865;29;1209;-78
2022/12/07 01:30:59;;;;;;;23.70;16.63;;;;;;;7.73;66.75;101024.03;677988;29;880;-78
2022/12/07 01:31:22;;;;;;;24.10;16.98;;;;;;;7.59;66.22;101013.91;680467;29;1018;-79
2022/12/07 01:31:43;;;;;;;22.45;16.33;;;;;;;7.59;66.81;101013.91;680535;29;1069;-78
2022/12/07 01:32:03;;;;;;;24.00;16.30;;;;;;;7.58;66.54;101027.72;680592;29;1099;-78
2022/12/07 01:32:24;;;;;;;24.67;16.60;;;;;;;7.57;67.21;101030.25;680615;29;1162;-78
2022/12/07 01:32:44;;;;;;;23.87;16.70;;;;;;;7.53;67.16;101037.00;678398;29;1234;-79
2022/12/07 01:33:05;;;;;;;22.67;16.83;;;;;;;7.51;66.98;101017.88;678079;29;1217;-79
2022/12/07 01:33:30;;;;;;;21.55;16.55;;;;;;;7.54;66.67;101016.31;680533;29;1161;-79
2022/12/07 01:33:53;;;;;;;22.55;16.50;;;;;;;7.44;66.66;101015.84;678050;29;892;-79
2022/12/07 01:34:14;;;;;;;23.00;15.90;;;;;;;7.53;67.37;101026.63;675357;29;1909;-79
2022/12/07 01:34:34;;;;;;;22.48;15.90;;;;;;;7.50;67.00;101016.97;677876;29;1128;-79
2022/12/07 01:34:55;;;;;;;22.07;15.90;;;;;;;7.52;66.85;101019.66;675395;29;1038;-79
2022/12/07 01:35:15;;;;;;;20.85;16.75;;;;;;;7.50;67.11;101021.31;672791;29;952;-78
2022/12/07 01:35:36;;;;;;;20.20;16.27;;;;;;;7.54;66.87;101025.78;673354;29;1099;-79
2022/12/07 01:36:24;;;;;;;20.60;16.70;;;;;;;7.60;67.34;101035.56;675680;29;1309;-79
2022/12/07 01:36:45;;;;;;;22.50;16.38;;;;;;;7.40;66.96;101010.50;676214;29;1151;-79
2022/12/07 01:37:06;;;;;;;24.52;16.42;;;;;;;7.48;67.21;101038.50;677614;29;1066;-79
2022/12/07 01:37:26;;;;;;;25.33;16.90;;;;;;;7.46;67.06;101016.78;672686;29;1437;-79
2022/12/07 01:37:47;;;;;;;26.07;16.90;;;;;;;7.39;67.00;101020.81;670360;29;911;-79
2022/12/07 01:38:07;;;;;;;23.58;16.35;;;;;;;7.36;67.25;101008.59;675338;29;1310;-79
2022/12/07 01:38:29;;;;;;;20.87;15.93;;;;;;;7.46;66.82;101021.97;677923;29;1424;-78
2022/12/07 01:38:56;;;;;;;22.30;16.40;;;;;;;7.47;67.03;101023.75;672130;29;1010;-79
2022/12/07 01:39:16;;;;;;;25.60;16.90;;;;;;;7.47;67.20;101029.84;674547;29;1155;-79
2022/12/07 01:39:37;;;;;;;25.85;16.80;;;;;;;7.46;67.21;101014.19;675308;29;1047;-79
2022/12/07 01:39:58;;;;;;;23.63;16.57;;;;;;;7.47;67.04;101013.34;672981;29;816;-79
2022/12/07 01:40:18;;;;;;;22.50;16.10;;;;;;;7.49;67.31;101024.72;672836;29;999;-79
2022/12/07 01:40:39;;;;;;;22.40;16.33;;;;;;;7.43;67.52;101019.25;675387;29;992;-79
2022/12/07 01:41:01;;;;;;;21.73;16.20;;;;;;;7.46;67.16;101021.97;678020;29;1118;-79
2022/12/07 01:41:22;;;;;;;23.33;16.60;;;;;;;7.52;67.11;101025.75;678249;29;1122;-79
2022/12/07 01:41:43;;;;;;;22.90;16.40;;;;;;;7.53;66.80;101017.13;677974;29;1230;-79
2022/12/07 01:42:04;;;;;;;21.45;15.90;;;;;;;7.50;67.43;101022.19;678196;29;1226;-78
2022/12/07 01:42:24;;;;;;;19.50;15.30;;;;;;;7.48;67.41;101009.94;675532;29;1373;-79